createdAt,value
2022-11-10T00:00:19.766Z,55.51
2022-11-10T00:02:46.163Z,55.11
2022-11-10T00:05:12.553Z,55.22
2022-11-10T00:07:41.316Z,54.53
2022-11-10T00:10:07.753Z,54.17
2022-11-10T00:12:34.464Z,56.50
2022-11-10T00:15:00.809Z,57.34
2022-11-10T00:17:27.165Z,56.13
2022-11-10T00:19:53.724Z,55.13
2022-11-10T00:22:22.939Z,54.97
2022-11-10T00:24:52.332Z,56.99
2022-11-10T00:27:18.719Z,56.08
2022-11-10T00:29:45.293Z,55.76
2022-11-10T00:32:12.140Z,54.88
2022-11-10T00:34:38.482Z,54.63
2022-11-10T00:37:05.450Z,56.74
2022-11-10T00:39:31.966Z,55.75
2022-11-10T00:42:00.779Z,55.38
2022-11-10T00:44:27.538Z,56.81
2022-11-10T00:46:55.142Z,56.75
2022-11-10T00:49:24.065Z,56.19
2022-11-10T00:51:50.943Z,55.52
2022-11-10T00:54:17.360Z,54.85
2022-11-10T00:56:43.763Z,54.79
2022-11-10T00:59:10.527Z,55.66
2022-11-10T01:01:37.058Z,55.43
2022-11-10T01:04:03.490Z,55.37
2022-11-10T01:06:30.620Z,56.22
2022-11-10T01:08:57.106Z,55.27
2022-11-10T01:11:23.517Z,55.44
2022-11-10T01:13:49.953Z,56.00
2022-11-10T01:16:16.396Z,55.37
2022-11-10T01:18:43.105Z,56.44
2022-11-10T01:21:10.291Z,56.57
2022-11-10T01:23:37.320Z,56.49
2022-11-10T01:26:03.760Z,56.08
2022-11-10T01:28:31.049Z,55.54
2022-11-10T01:30:57.402Z,55.50
2022-11-10T01:33:23.994Z,58.33
2022-11-10T01:35:50.644Z,59.71
2022-11-10T01:38:17.227Z,58.82
2022-11-10T01:40:43.615Z,58.19
2022-11-10T01:43:10.311Z,57.40
2022-11-10T01:45:36.741Z,57.94
2022-11-10T01:48:03.102Z,57.36
2022-11-10T01:50:30.079Z,56.82
2022-11-10T01:52:56.463Z,56.45
2022-11-10T01:55:23.364Z,56.60
2022-11-10T01:57:50.195Z,57.10
2022-11-10T02:00:16.593Z,56.47
2022-11-10T02:02:43.195Z,56.13
2022-11-10T02:05:09.685Z,55.91
2022-11-10T02:07:36.101Z,55.05
2022-11-10T02:10:02.644Z,55.21
2022-11-10T02:12:30.046Z,55.32
2022-11-10T02:14:56.579Z,55.25
2022-11-10T02:17:23.228Z,54.90
2022-11-10T02:19:50.154Z,55.46
2022-11-10T02:22:16.740Z,54.91
2022-11-10T02:24:43.277Z,55.02
2022-11-10T02:27:10.207Z,54.92
2022-11-10T02:29:36.653Z,54.69
2022-11-10T02:32:03.034Z,54.48
2022-11-10T02:34:30.470Z,54.38
2022-11-10T02:36:56.934Z,54.37
2022-11-10T02:39:23.383Z,54.47
2022-11-10T02:41:49.931Z,54.54
2022-11-10T02:44:16.572Z,54.43
2022-11-10T02:46:42.982Z,54.46
2022-11-10T02:49:09.473Z,54.39
2022-11-10T02:51:35.905Z,54.12
2022-11-10T02:54:03.285Z,54.21
2022-11-10T02:56:29.788Z,54.12
2022-11-10T02:58:56.151Z,54.33
2022-11-10T03:01:22.644Z,54.32
2022-11-10T03:03:49.230Z,54.33
2022-11-10T03:06:15.681Z,54.27
2022-11-10T03:08:42.113Z,54.39
2022-11-10T03:11:09.136Z,54.43
2022-11-10T03:13:58.948Z,54.50
2022-11-10T03:16:22.093Z,54.50
2022-11-10T03:18:48.502Z,54.57
2022-11-10T03:21:15.099Z,54.37
2022-11-10T03:23:41.848Z,54.46
2022-11-10T03:26:08.251Z,54.32
2022-11-10T03:28:34.634Z,54.51
2022-11-10T03:31:01.546Z,54.33
2022-11-10T03:33:28.009Z,54.30
2022-11-10T03:35:54.372Z,54.09
2022-11-10T03:38:21.313Z,54.16
2022-11-10T03:41:17.619Z,54.18
2022-11-10T03:43:34.459Z,54.11
2022-11-10T03:46:01.011Z,54.21
2022-11-10T03:48:27.461Z,54.44
2022-11-10T03:50:53.851Z,54.34
2022-11-10T03:53:20.605Z,54.22
2022-11-10T03:55:47.218Z,54.48
2022-11-10T03:58:13.753Z,54.22
2022-11-10T04:00:40.192Z,54.43
2022-11-10T04:03:06.524Z,54.42
2022-11-10T04:05:32.947Z,54.43
2022-11-10T04:07:59.324Z,54.43
2022-11-10T04:10:25.729Z,54.46
2022-11-10T04:12:52.215Z,54.60
2022-11-10T04:15:18.578Z,54.57
2022-11-10T04:17:44.979Z,54.79
2022-11-10T04:20:11.503Z,54.78
2022-11-10T04:22:37.971Z,54.52
2022-11-10T04:25:04.369Z,54.37
2022-11-10T04:27:30.938Z,54.66
2022-11-10T04:29:57.368Z,54.31
2022-11-10T04:32:23.740Z,54.71
2022-11-10T04:34:50.270Z,54.68
2022-11-10T04:37:16.582Z,54.39
2022-11-10T04:39:42.897Z,54.62
2022-11-10T04:42:09.423Z,54.71
2022-11-10T04:44:35.825Z,54.49
2022-11-10T04:47:02.163Z,54.31
2022-11-10T04:49:28.816Z,54.51
2022-11-10T04:51:55.229Z,54.76
2022-11-10T04:54:21.677Z,54.69
2022-11-10T04:56:48.114Z,54.85
2022-11-10T04:59:14.580Z,54.65
2022-11-10T05:01:41.215Z,54.87
2022-11-10T05:04:07.935Z,54.93
2022-11-10T05:06:35.436Z,54.81
2022-11-10T05:09:02.175Z,55.02
2022-11-10T05:11:28.570Z,54.77
2022-11-10T05:13:54.981Z,54.67
2022-11-10T05:16:21.353Z,54.80
2022-11-10T05:18:48.079Z,54.71
2022-11-10T05:21:14.665Z,54.92
2022-11-10T05:23:41.254Z,54.94
2022-11-10T05:26:07.635Z,54.62
2022-11-10T05:28:34.178Z,54.71
2022-11-10T05:31:00.661Z,55.00
2022-11-10T05:33:27.578Z,55.21
2022-11-10T05:35:53.961Z,55.16
2022-11-10T05:38:20.360Z,55.88
2022-11-10T05:40:47.103Z,55.44
2022-11-10T05:43:13.639Z,55.32
2022-11-10T05:45:40.027Z,55.83
2022-11-10T05:48:06.760Z,55.40
2022-11-10T05:50:33.370Z,55.50
2022-11-10T05:52:59.728Z,55.40
2022-11-10T05:55:26.397Z,55.21
2022-11-10T05:57:52.768Z,55.13
2022-11-10T06:00:19.207Z,55.73
2022-11-10T06:02:45.698Z,55.66
2022-11-10T06:05:12.105Z,55.36
2022-11-10T06:07:38.587Z,55.54
2022-11-10T06:10:05.027Z,55.85
2022-11-10T06:12:31.474Z,55.74
2022-11-10T06:14:57.933Z,55.65
2022-11-10T06:17:24.564Z,55.78
2022-11-10T06:19:51.383Z,55.78
2022-11-10T06:22:17.750Z,56.01
2022-11-10T06:24:44.299Z,55.37
2022-11-10T06:27:10.718Z,55.52
2022-11-10T06:29:37.107Z,56.43
2022-11-10T06:32:03.743Z,55.74
2022-11-10T06:34:30.209Z,55.62
2022-11-10T06:36:56.572Z,55.07
2022-11-10T06:39:23.227Z,56.02
2022-11-10T06:41:49.566Z,55.99
2022-11-10T06:44:16.993Z,57.60
2022-11-10T06:46:45.394Z,56.84
2022-11-10T06:49:11.840Z,57.63
2022-11-10T06:51:38.220Z,57.47
2022-11-10T06:54:04.779Z,57.15
2022-11-10T06:56:31.152Z,58.07
2022-11-10T06:58:57.531Z,58.28
2022-11-10T07:01:24.231Z,58.81
2022-11-10T07:04:17.512Z,58.60
2022-11-10T07:06:37.817Z,58.50
2022-11-10T07:09:04.436Z,58.50
2022-11-10T07:11:30.924Z,58.80
2022-11-10T07:13:57.454Z,59.48
2022-11-10T07:16:24.707Z,59.02
2022-11-10T07:18:51.245Z,58.62
2022-11-10T07:21:20.036Z,58.79
2022-11-10T07:23:46.449Z,58.91
2022-11-10T07:26:12.841Z,58.26
2022-11-10T07:28:39.284Z,58.72
2022-11-10T07:31:05.829Z,58.15
2022-11-10T07:33:32.349Z,57.76
2022-11-10T07:35:58.990Z,57.90
2022-11-10T07:38:26.975Z,58.08
2022-11-10T07:40:53.382Z,58.53
2022-11-10T07:43:20.229Z,58.29
2022-11-10T07:45:46.861Z,59.11
2022-11-10T07:48:13.247Z,59.22
2022-11-10T07:50:39.649Z,59.21
2022-11-10T07:53:06.035Z,58.09
2022-11-10T07:55:33.573Z,57.26
2022-11-10T07:57:59.994Z,56.31
2022-11-10T08:00:26.386Z,57.47
2022-11-10T08:02:52.895Z,56.67
2022-11-10T08:05:19.333Z,56.14
2022-11-10T08:07:45.748Z,54.58
2022-11-10T08:10:12.475Z,55.19
2022-11-10T08:12:39.291Z,54.88
2022-11-10T08:15:06.096Z,54.84
2022-11-10T08:17:32.490Z,54.61
2022-11-10T08:19:58.861Z,53.24
2022-11-10T08:22:25.256Z,53.12
2022-11-10T08:24:52.097Z,53.60
2022-11-10T08:27:18.912Z,53.22
2022-11-10T08:29:45.271Z,54.23
2022-11-10T08:32:12.083Z,54.21
2022-11-10T08:34:38.670Z,55.10
2022-11-10T08:37:05.000Z,54.99
2022-11-10T08:39:39.095Z,55.30
2022-11-10T08:42:06.561Z,55.78
2022-11-10T08:44:32.941Z,56.27
2022-11-10T08:46:59.500Z,55.39
2022-11-10T08:49:26.455Z,55.41
2022-11-10T08:51:52.916Z,55.76
2022-11-10T08:54:19.250Z,55.16
2022-11-10T08:56:45.919Z,56.88
2022-11-10T08:59:12.523Z,57.17
2022-11-10T09:01:39.038Z,56.92
2022-11-10T09:04:05.583Z,57.06
2022-11-10T09:06:32.780Z,58.39
2022-11-10T09:08:59.290Z,58.93
2022-11-10T09:11:26.571Z,57.71
2022-11-10T09:13:53.017Z,57.99
2022-11-10T09:16:19.477Z,56.80
2022-11-10T09:18:45.878Z,56.63
2022-11-10T09:21:12.250Z,56.83
2022-11-10T09:23:38.732Z,55.61
2022-11-10T09:26:05.598Z,55.75
2022-11-10T09:28:32.185Z,55.21
2022-11-10T09:30:59.044Z,55.47
2022-11-10T09:33:26.068Z,55.19
2022-11-10T09:35:52.672Z,56.02
2022-11-10T09:38:19.399Z,54.87
2022-11-10T09:40:46.128Z,55.48
2022-11-10T09:43:12.659Z,54.88
2022-11-10T09:45:39.621Z,54.73
2022-11-10T09:48:06.300Z,54.77
2022-11-10T09:50:32.919Z,54.97
2022-11-10T09:52:59.297Z,56.01
2022-11-10T09:55:25.882Z,56.98
2022-11-10T09:57:52.317Z,57.12
2022-11-10T10:00:18.788Z,56.90
2022-11-10T10:02:45.222Z,56.93
2022-11-10T10:05:11.608Z,55.56
2022-11-10T10:07:38.052Z,55.88
2022-11-10T10:10:04.561Z,55.08
2022-11-10T10:12:31.943Z,55.64
2022-11-10T10:14:58.398Z,56.58
2022-11-10T10:17:27.134Z,55.56
2022-11-10T10:19:53.705Z,55.49
2022-11-10T10:22:20.077Z,55.35
2022-11-10T10:24:46.788Z,55.58
2022-11-10T10:27:13.163Z,55.59
2022-11-10T10:29:39.686Z,55.10
2022-11-10T10:32:06.346Z,56.16
2022-11-10T10:34:32.733Z,55.85
2022-11-10T10:36:59.187Z,55.83
2022-11-10T10:39:26.586Z,56.42
2022-11-10T10:41:52.995Z,56.79
2022-11-10T10:44:19.389Z,56.26
2022-11-10T10:46:46.075Z,57.28
2022-11-10T10:49:28.112Z,58.29
2022-11-10T10:51:56.174Z,57.90
2022-11-10T10:54:22.734Z,57.06
2022-11-10T10:56:49.134Z,57.45
2022-11-10T10:59:16.317Z,56.54
2022-11-10T11:01:42.862Z,56.14
2022-11-10T11:04:09.323Z,56.94
2022-11-10T11:06:36.130Z,56.29
2022-11-10T11:09:02.596Z,57.05
2022-11-10T11:11:29.037Z,56.95
2022-11-10T11:13:55.867Z,56.46
2022-11-10T11:16:22.440Z,55.41
2022-11-10T11:18:48.854Z,55.92
2022-11-10T11:21:15.261Z,56.17
2022-11-10T11:23:41.675Z,56.18
2022-11-10T11:26:08.038Z,56.04
2022-11-10T11:28:35.504Z,56.29
2022-11-10T11:31:02.088Z,56.20
2022-11-10T11:33:28.551Z,55.67
2022-11-10T11:35:55.019Z,55.59
2022-11-10T11:38:22.026Z,56.54
2022-11-10T11:40:48.873Z,56.43
2022-11-10T11:43:15.463Z,55.92
2022-11-10T11:45:41.924Z,56.33
2022-11-10T11:48:08.549Z,57.98
2022-11-10T11:50:35.061Z,56.39
2022-11-10T11:53:01.588Z,55.85
2022-11-10T11:55:28.036Z,55.39
2022-11-10T11:57:54.626Z,55.67
2022-11-10T12:00:21.027Z,55.01
2022-11-10T12:02:52.437Z,55.99
2022-11-10T12:05:20.128Z,54.37
2022-11-10T12:07:46.494Z,54.35
2022-11-10T12:10:12.938Z,54.36
2022-11-10T12:12:39.663Z,54.63
2022-11-10T12:15:06.062Z,54.83
2022-11-10T12:17:32.505Z,54.76
2022-11-10T12:19:58.976Z,55.07
2022-11-10T12:22:25.349Z,55.03
2022-11-10T12:24:51.976Z,54.75
2022-11-10T12:27:18.607Z,53.34
2022-11-10T12:29:45.052Z,54.23
2022-11-10T12:32:11.447Z,54.65
2022-11-10T12:34:38.098Z,53.62
2022-11-10T12:37:04.466Z,53.79
2022-11-10T12:39:30.862Z,53.01
2022-11-10T12:41:57.537Z,53.93
2022-11-10T12:44:23.883Z,56.27
2022-11-10T12:46:52.161Z,54.65
2022-11-10T12:49:18.977Z,54.35
2022-11-10T12:51:45.340Z,54.84
2022-11-10T12:54:16.467Z,55.00
2022-11-10T12:56:43.588Z,55.22
2022-11-10T12:59:10.954Z,54.75
2022-11-10T13:01:37.776Z,54.57
2022-11-10T13:04:04.512Z,54.58
2022-11-10T13:06:31.028Z,54.73
2022-11-10T13:08:57.532Z,56.19
2022-11-10T13:11:24.317Z,55.78
2022-11-10T13:13:58.190Z,54.82
2022-11-10T13:16:28.955Z,54.57
2022-11-10T13:18:55.415Z,54.57
2022-11-10T13:21:24.640Z,55.12
2022-11-10T13:23:51.821Z,54.78
2022-11-10T13:26:18.588Z,54.65
2022-11-10T13:28:45.281Z,54.30
2022-11-10T13:31:11.766Z,54.24
2022-11-10T13:33:39.229Z,54.33
2022-11-10T13:36:05.927Z,53.92
2022-11-10T13:38:32.944Z,53.63
2022-11-10T13:40:59.378Z,54.23
2022-11-10T13:43:26.007Z,53.61
2022-11-10T13:45:52.712Z,53.59
2022-11-10T13:48:19.573Z,54.48
2022-11-10T13:50:46.253Z,53.84
2022-11-10T13:53:12.904Z,53.17
2022-11-10T13:55:39.338Z,53.08
2022-11-10T13:58:05.855Z,53.55
2022-11-10T14:00:32.688Z,53.43
2022-11-10T14:02:59.391Z,53.49
2022-11-10T14:05:25.961Z,53.18
2022-11-10T14:07:52.643Z,53.62
2022-11-10T14:10:19.030Z,53.56
2022-11-10T14:12:45.471Z,54.91
2022-11-10T14:15:12.610Z,55.82
2022-11-10T14:17:38.957Z,55.70
2022-11-10T14:20:05.450Z,56.75
2022-11-10T14:22:31.899Z,57.13
2022-11-10T14:24:58.303Z,56.59
2022-11-10T14:27:24.688Z,55.33
2022-11-10T14:29:51.121Z,53.44
2022-11-10T14:32:17.491Z,53.24
2022-11-10T14:34:43.934Z,52.01
2022-11-10T14:37:10.516Z,50.59
2022-11-10T14:39:37.183Z,49.33
2022-11-10T14:42:03.578Z,50.50
2022-11-10T14:44:30.232Z,50.56
2022-11-10T14:46:57.637Z,51.08
2022-11-10T14:49:25.278Z,51.57
2022-11-10T14:51:51.853Z,52.07
2022-11-10T14:54:19.244Z,51.91
2022-11-10T14:56:45.857Z,52.28
2022-11-10T14:59:12.369Z,52.16
2022-11-10T15:01:38.795Z,52.58
2022-11-10T15:04:05.188Z,52.57
2022-11-10T15:06:31.736Z,52.33
2022-11-10T15:08:58.725Z,52.98
2022-11-10T15:11:25.158Z,52.64
2022-11-10T15:13:51.689Z,52.87
2022-11-10T15:16:19.083Z,52.53
2022-11-10T15:18:45.440Z,52.87
2022-11-10T15:21:12.845Z,52.60
2022-11-10T15:23:39.236Z,52.84
2022-11-10T15:26:05.713Z,52.55
2022-11-10T15:28:32.301Z,52.86
2022-11-10T15:30:58.821Z,53.69
2022-11-10T15:33:27.672Z,53.30
2022-11-10T15:35:54.869Z,53.90
2022-11-10T15:38:21.582Z,54.31
2022-11-10T15:40:51.000Z,54.31
2022-11-10T15:43:21.224Z,54.00
2022-11-10T15:45:47.978Z,53.70
2022-11-10T15:48:14.385Z,54.41
2022-11-10T15:50:41.044Z,54.05
2022-11-10T15:53:07.622Z,53.51
2022-11-10T15:55:34.145Z,53.87
2022-11-10T15:58:00.731Z,53.68
2022-11-10T16:00:27.099Z,53.79
2022-11-10T16:02:53.459Z,53.20
2022-11-10T16:05:20.128Z,53.20
2022-11-10T16:07:46.615Z,52.93
2022-11-10T16:10:15.643Z,53.81
2022-11-10T16:12:42.177Z,54.23
2022-11-10T16:15:08.597Z,56.41
2022-11-10T16:17:34.945Z,55.43
2022-11-10T16:20:01.412Z,54.65
2022-11-10T16:22:30.773Z,53.41
2022-11-10T16:24:57.119Z,53.00
2022-11-10T16:27:23.909Z,52.98
2022-11-10T16:29:50.483Z,53.02
2022-11-10T16:32:16.852Z,53.08
2022-11-10T16:34:43.799Z,52.99
2022-11-10T16:37:10.244Z,55.12
2022-11-10T16:39:36.624Z,54.25
2022-11-10T16:42:03.260Z,54.21
2022-11-10T16:44:29.921Z,54.00
2022-11-10T16:46:58.755Z,53.79
2022-11-10T16:49:25.221Z,52.99
2022-11-10T16:51:51.752Z,52.96
2022-11-10T16:54:18.285Z,53.23
2022-11-10T16:56:45.641Z,53.54
2022-11-10T16:59:12.122Z,53.76
2022-11-10T17:01:38.516Z,53.57
2022-11-10T17:04:05.099Z,53.25
2022-11-10T17:06:31.535Z,52.92
2022-11-10T17:08:58.162Z,53.83
2022-11-10T17:11:25.425Z,53.85
2022-11-10T17:13:51.867Z,52.67
2022-11-10T17:16:18.224Z,53.06
2022-11-10T17:18:44.878Z,54.12
2022-11-10T17:21:11.333Z,54.19
2022-11-10T17:23:38.284Z,53.60
2022-11-10T17:26:05.802Z,53.87
2022-11-10T17:28:32.454Z,53.40
2022-11-10T17:30:58.895Z,52.79
2022-11-10T17:33:25.800Z,52.99
2022-11-10T17:35:53.171Z,53.73
2022-11-10T17:38:20.305Z,53.46
2022-11-10T17:40:47.356Z,53.46
2022-11-10T17:43:14.031Z,53.46
2022-11-10T17:45:40.436Z,53.95
2022-11-10T17:48:06.869Z,53.49
2022-11-10T17:50:33.369Z,53.74
2022-11-10T17:52:59.911Z,53.39
2022-11-10T17:55:34.020Z,53.97
2022-11-10T17:58:01.224Z,53.67
2022-11-10T18:00:29.884Z,53.57
2022-11-10T18:02:56.507Z,54.34
2022-11-10T18:05:25.140Z,53.33
2022-11-10T18:07:51.864Z,53.42
2022-11-10T18:10:18.358Z,53.74
2022-11-10T18:12:46.048Z,54.51
2022-11-10T18:15:12.924Z,54.26
2022-11-10T18:17:43.541Z,57.50
2022-11-10T18:20:11.327Z,53.99
2022-11-10T18:22:38.744Z,54.40
2022-11-10T18:25:05.265Z,54.06
2022-11-10T18:27:31.929Z,53.10
2022-11-10T18:29:59.119Z,53.99
2022-11-10T18:32:25.851Z,53.62
2022-11-10T18:34:53.720Z,53.29
2022-11-10T18:37:21.020Z,52.47
2022-11-10T18:39:47.722Z,52.60
2022-11-10T18:42:17.050Z,52.51
2022-11-10T18:44:46.851Z,52.48
2022-11-10T18:47:13.896Z,52.63
2022-11-10T18:49:40.882Z,52.32
2022-11-10T18:52:08.865Z,53.05
2022-11-10T18:54:35.701Z,54.03
2022-11-10T18:57:02.529Z,53.92
2022-11-10T18:59:30.473Z,51.91
2022-11-10T19:01:58.207Z,52.15
2022-11-10T19:04:24.968Z,52.01
2022-11-10T19:06:52.349Z,52.20
2022-11-10T19:09:19.261Z,52.36
2022-11-10T19:11:49.736Z,52.51
2022-11-10T19:14:16.268Z,52.21
2022-11-10T19:16:43.031Z,51.94
2022-11-10T19:19:10.078Z,51.54
2022-11-10T19:21:44.530Z,52.80
2022-11-10T19:24:12.485Z,53.34
2022-11-10T19:26:42.469Z,52.89
2022-11-10T19:29:12.612Z,53.39
2022-11-10T19:31:39.504Z,52.68
2022-11-10T19:34:06.350Z,53.26
2022-11-10T19:36:37.493Z,53.44
2022-11-10T19:39:03.941Z,53.68
2022-11-10T19:41:32.108Z,53.48
2022-11-10T19:43:59.094Z,53.87
2022-11-10T19:46:27.376Z,53.38
2022-11-10T19:49:07.363Z,54.59
2022-11-10T19:51:41.858Z,53.91
2022-11-10T19:54:09.128Z,53.24
2022-11-10T19:56:36.701Z,53.70
2022-11-10T19:59:03.459Z,54.05
2022-11-10T20:01:30.383Z,53.81
2022-11-10T20:03:59.463Z,53.44
2022-11-10T20:06:26.864Z,54.45
2022-11-10T20:08:54.222Z,54.25
2022-11-10T20:11:21.331Z,53.87
2022-11-10T20:13:53.316Z,53.72
2022-11-10T20:16:21.749Z,53.88
2022-11-10T20:18:48.623Z,54.09
2022-11-10T20:21:15.318Z,53.79
2022-11-10T20:23:42.154Z,53.49
2022-11-10T20:26:10.475Z,54.08
2022-11-10T20:28:37.271Z,53.25
2022-11-10T20:31:04.255Z,52.88
2022-11-10T20:33:31.475Z,53.11
2022-11-10T20:35:58.217Z,53.46
2022-11-10T20:38:26.220Z,52.66
2022-11-10T20:40:53.050Z,53.07
2022-11-10T20:43:19.805Z,53.34
2022-11-10T20:45:46.656Z,53.26
2022-11-10T20:48:13.959Z,53.43
2022-11-10T20:50:42.827Z,53.71
2022-11-10T20:53:10.066Z,53.96
2022-11-10T20:55:53.181Z,53.29
2022-11-10T20:58:20.816Z,52.85
2022-11-10T21:00:47.317Z,52.75
2022-11-10T21:03:14.051Z,52.98
2022-11-10T21:05:40.742Z,52.55
2022-11-10T21:08:07.137Z,52.96
2022-11-10T21:10:33.969Z,52.73
2022-11-10T21:13:00.655Z,53.09
2022-11-10T21:15:27.384Z,52.83
2022-11-10T21:17:54.103Z,52.58
2022-11-10T21:20:21.116Z,52.62
2022-11-10T21:22:47.553Z,52.54
2022-11-10T21:25:13.944Z,52.88
2022-11-10T21:27:40.690Z,53.05
2022-11-10T21:30:11.435Z,53.16
2022-11-10T21:32:40.578Z,53.27
2022-11-10T21:35:06.960Z,52.82
2022-11-10T21:37:33.873Z,53.20
2022-11-10T21:40:00.311Z,53.07
2022-11-10T21:42:28.538Z,52.86
2022-11-10T21:44:57.290Z,52.71
2022-11-10T21:47:24.239Z,52.69
2022-11-10T21:49:51.102Z,52.70
2022-11-10T21:52:17.838Z,52.59
2022-11-10T21:54:44.800Z,53.26
2022-11-10T21:57:11.790Z,54.04
2022-11-10T21:59:38.154Z,53.63
2022-11-10T22:02:04.846Z,53.77
2022-11-10T22:04:31.500Z,53.00
2022-11-10T22:06:57.983Z,53.00
2022-11-10T22:09:24.464Z,53.28
2022-11-10T22:11:51.020Z,54.40
2022-11-10T22:14:17.432Z,53.97
2022-11-10T22:16:43.844Z,53.69
2022-11-10T22:19:10.378Z,53.50
2022-11-10T22:21:36.877Z,53.61
2022-11-10T22:24:03.599Z,53.95
2022-11-10T22:26:30.043Z,53.76
2022-11-10T22:28:56.797Z,54.16
2022-11-10T22:31:23.424Z,53.84
2022-11-10T22:33:49.966Z,53.93
2022-11-10T22:36:16.599Z,53.58
2022-11-10T22:38:43.176Z,53.72
2022-11-10T22:41:09.752Z,53.55
2022-11-10T22:43:36.071Z,53.54
2022-11-10T22:46:02.657Z,53.50
2022-11-10T22:48:29.213Z,53.87
2022-11-10T22:50:55.550Z,54.05
2022-11-10T22:53:22.284Z,54.27
2022-11-10T22:55:49.007Z,53.97
2022-11-10T22:58:15.494Z,53.88
2022-11-10T23:00:41.966Z,53.97
2022-11-10T23:03:08.469Z,54.26
2022-11-10T23:05:34.856Z,54.17
2022-11-10T23:08:01.314Z,54.45
2022-11-10T23:10:27.700Z,54.50
2022-11-10T23:12:54.148Z,54.04
2022-11-10T23:15:20.566Z,54.21
2022-11-10T23:17:47.269Z,54.10
2022-11-10T23:20:13.649Z,54.28
2022-11-10T23:22:40.347Z,54.15
2022-11-10T23:25:06.727Z,54.28
2022-11-10T23:27:33.103Z,54.68
2022-11-10T23:30:00.077Z,55.08
2022-11-10T23:32:26.702Z,54.78
2022-11-10T23:34:53.292Z,54.93
2022-11-10T23:37:20.152Z,54.39
2022-11-10T23:39:46.494Z,54.42
2022-11-10T23:42:12.877Z,54.14
2022-11-10T23:44:39.505Z,54.43
2022-11-10T23:47:05.861Z,54.43
2022-11-10T23:49:32.252Z,54.50
2022-11-10T23:51:59.504Z,54.40
2022-11-10T23:54:26.037Z,54.34
2022-11-10T23:56:52.848Z,54.06
2022-11-10T23:59:19.499Z,54.13
